createdAt,value
2023-03-06T00:01:59.002Z,17.33
2023-03-06T00:04:26.330Z,17.30
2023-03-06T00:06:54.333Z,15.75
2023-03-06T00:09:21.609Z,17.00
2023-03-06T00:11:49.010Z,16.08
2023-03-06T00:14:16.937Z,15.73
2023-03-06T00:16:44.331Z,14.77
2023-03-06T00:19:11.713Z,16.08
2023-03-06T00:21:42.211Z,16.23
2023-03-06T00:24:09.572Z,14.82
2023-03-06T00:26:36.881Z,14.65
2023-03-06T00:29:04.506Z,16.17
2023-03-06T00:31:31.883Z,14.15
2023-03-06T00:33:59.519Z,15.52
2023-03-06T00:36:27.020Z,17.80
2023-03-06T00:38:54.429Z,18.45
2023-03-06T00:41:22.198Z,19.88
2023-03-06T00:43:50.972Z,21.45
2023-03-06T00:46:18.347Z,21.15
2023-03-06T00:48:45.697Z,20.48
2023-03-06T00:51:14.124Z,20.02
2023-03-06T00:53:43.605Z,22.95
2023-03-06T00:56:11.048Z,22.40
2023-03-06T00:58:38.638Z,22.25
2023-03-06T01:01:06.079Z,23.33
2023-03-06T01:03:33.560Z,21.17
2023-03-06T01:06:01.058Z,20.52
2023-03-06T01:08:28.494Z,20.35
2023-03-06T01:10:57.055Z,20.60
2023-03-06T01:13:24.623Z,18.52
2023-03-06T01:15:53.495Z,19.75
2023-03-06T01:18:22.243Z,20.92
2023-03-06T01:20:49.625Z,21.45
2023-03-06T01:23:17.031Z,20.23
2023-03-06T01:25:45.102Z,21.70
2023-03-06T01:28:12.563Z,21.10
2023-03-06T01:30:39.791Z,18.25
2023-03-06T01:33:07.152Z,20.38
2023-03-06T01:35:34.637Z,19.67
2023-03-06T01:38:02.099Z,21.10
2023-03-06T01:40:32.324Z,21.10
2023-03-06T01:42:59.786Z,21.83
2023-03-06T01:45:48.436Z,21.95
2023-03-06T01:48:18.679Z,21.67
2023-03-06T01:50:46.846Z,20.95
2023-03-06T01:53:15.559Z,19.58
2023-03-06T01:55:43.017Z,19.90
2023-03-06T01:58:14.150Z,18.65
2023-03-06T02:00:41.812Z,20.55
2023-03-06T02:03:14.802Z,18.05
2023-03-06T02:05:43.110Z,18.47
2023-03-06T02:08:13.530Z,18.58
2023-03-06T02:10:50.269Z,18.60
2023-03-06T02:13:17.665Z,17.83
2023-03-06T02:15:44.949Z,18.55
2023-03-06T02:18:13.625Z,18.45
2023-03-06T02:20:48.760Z,17.83
2023-03-06T02:23:37.892Z,18.33
2023-03-06T02:26:06.900Z,16.23
2023-03-06T02:28:34.633Z,18.38
2023-03-06T02:31:02.262Z,19.77
2023-03-06T02:33:29.915Z,18.85
2023-03-06T02:36:01.015Z,19.23
2023-03-06T02:38:34.403Z,19.60
2023-03-06T02:41:07.261Z,21.58
2023-03-06T02:43:38.684Z,19.00
2023-03-06T02:46:06.961Z,19.48
2023-03-06T02:48:34.519Z,19.90
2023-03-06T02:51:02.041Z,19.75
2023-03-06T02:53:29.328Z,20.55
2023-03-06T02:55:59.827Z,19.55
2023-03-06T02:58:27.317Z,19.75
2023-03-06T03:00:54.786Z,18.90
2023-03-06T03:03:22.105Z,19.67
2023-03-06T03:05:49.675Z,18.35
2023-03-06T03:08:23.866Z,18.42
2023-03-06T03:10:57.285Z,17.17
2023-03-06T03:13:27.425Z,17.25
2023-03-06T03:15:58.890Z,17.58
2023-03-06T03:18:26.444Z,18.80
2023-03-06T03:20:54.608Z,18.02
2023-03-06T03:23:23.787Z,17.73
2023-03-06T03:25:51.369Z,18.08
2023-03-06T03:28:20.438Z,16.63
2023-03-06T03:30:47.975Z,18.73
2023-03-06T03:33:16.177Z,17.67
2023-03-06T03:35:43.850Z,17.08
2023-03-06T03:38:11.291Z,18.65
2023-03-06T03:40:39.288Z,18.50
2023-03-06T03:43:06.739Z,20.50
2023-03-06T03:45:34.361Z,19.13
2023-03-06T03:48:01.809Z,17.90
2023-03-06T03:50:30.152Z,20.00
2023-03-06T03:52:57.769Z,19.48
2023-03-06T03:55:25.818Z,22.75
2023-03-06T03:57:53.748Z,22.20
2023-03-06T04:00:21.596Z,19.38
2023-03-06T04:03:00.898Z,18.92
2023-03-06T04:05:34.087Z,23.08
2023-03-06T04:08:03.745Z,21.02
2023-03-06T04:10:32.680Z,19.80
2023-03-06T04:13:00.657Z,20.27
2023-03-06T04:15:28.996Z,20.25
2023-03-06T04:17:57.179Z,21.08
2023-03-06T04:20:28.115Z,20.92
2023-03-06T04:22:57.178Z,21.05
2023-03-06T04:25:24.565Z,20.02
2023-03-06T04:27:52.191Z,20.42
2023-03-06T04:30:19.680Z,20.08
2023-03-06T04:32:47.870Z,18.15
2023-03-06T04:35:15.197Z,18.65
2023-03-06T04:37:52.529Z,19.25
2023-03-06T04:40:28.363Z,20.50
2023-03-06T04:42:57.509Z,18.83
2023-03-06T04:45:26.097Z,23.42
2023-03-06T04:47:54.079Z,27.85
2023-03-06T04:50:23.249Z,23.40
2023-03-06T04:52:52.000Z,24.48
2023-03-06T04:55:19.721Z,23.77
2023-03-06T04:57:47.937Z,21.02
2023-03-06T05:00:20.272Z,20.58
2023-03-06T05:02:49.023Z,20.88
2023-03-06T05:05:17.776Z,21.23
2023-03-06T05:07:45.539Z,19.42
2023-03-06T05:10:15.622Z,19.45
2023-03-06T05:12:43.586Z,20.90
2023-03-06T05:15:12.490Z,21.10
2023-03-06T05:17:40.118Z,20.15
2023-03-06T05:20:09.789Z,20.45
2023-03-06T05:22:37.454Z,19.65
2023-03-06T05:25:05.610Z,21.08
2023-03-06T05:27:33.311Z,21.45
2023-03-06T05:30:01.022Z,18.83
2023-03-06T05:32:28.922Z,21.15
2023-03-06T05:34:56.468Z,20.13
2023-03-06T05:37:24.208Z,23.10
2023-03-06T05:39:52.012Z,23.20
2023-03-06T05:42:19.572Z,21.83
2023-03-06T05:44:47.143Z,22.30
2023-03-06T05:47:14.838Z,23.45
2023-03-06T05:49:42.203Z,23.90
2023-03-06T05:52:12.352Z,25.52
2023-03-06T05:54:39.692Z,25.25
2023-03-06T05:57:07.197Z,24.20
2023-03-06T05:59:34.629Z,25.20
2023-03-06T06:02:04.308Z,23.13
2023-03-06T06:04:31.641Z,23.50
2023-03-06T06:07:00.660Z,24.30
2023-03-06T06:09:28.561Z,26.27
2023-03-06T06:12:00.168Z,25.77
2023-03-06T06:14:28.836Z,24.10
2023-03-06T06:16:56.335Z,24.90
2023-03-06T06:19:23.888Z,21.90
2023-03-06T06:21:54.023Z,20.85
2023-03-06T06:24:25.006Z,20.33
2023-03-06T06:26:54.816Z,20.98
2023-03-06T06:29:23.279Z,19.38
2023-03-06T06:31:51.428Z,24.35
2023-03-06T06:34:19.876Z,21.05
2023-03-06T06:36:47.364Z,24.02
2023-03-06T06:39:16.660Z,26.00
2023-03-06T06:42:02.371Z,21.95
2023-03-06T06:44:32.983Z,19.90
2023-03-06T06:49:50.799Z,23.83
2023-03-06T06:52:19.021Z,24.08
2023-03-06T06:54:46.459Z,24.27
2023-03-06T06:57:14.694Z,19.50
2023-03-06T06:59:42.216Z,20.67
2023-03-06T07:02:12.456Z,20.70
2023-03-06T07:04:52.304Z,20.23
2023-03-06T07:09:53.721Z,24.13
2023-03-06T07:12:21.164Z,22.75
2023-03-06T07:14:48.707Z,21.08
2023-03-06T07:17:16.078Z,19.92
2023-03-06T07:19:43.335Z,20.83
2023-03-06T07:22:10.880Z,22.42
2023-03-06T07:24:38.244Z,24.48
2023-03-06T07:27:05.674Z,22.95
2023-03-06T07:29:34.834Z,22.75
2023-03-06T07:32:02.392Z,22.55
2023-03-06T07:34:29.810Z,21.42
2023-03-06T07:36:57.253Z,20.23
2023-03-06T07:39:24.597Z,19.50
2023-03-06T07:41:52.459Z,17.95
2023-03-06T07:44:19.904Z,22.58
2023-03-06T07:46:47.331Z,21.48
2023-03-06T07:49:14.652Z,20.75
2023-03-06T07:51:42.250Z,21.00
2023-03-06T07:54:09.540Z,19.45
2023-03-06T07:56:37.531Z,19.40
2023-03-06T07:59:05.009Z,21.92
2023-03-06T08:01:32.442Z,19.88
2023-03-06T08:04:01.250Z,19.60
2023-03-06T08:06:28.821Z,20.73
2023-03-06T08:08:57.011Z,18.65
2023-03-06T08:11:27.828Z,18.65
2023-03-06T08:13:56.453Z,19.35
2023-03-06T08:16:27.398Z,21.70
2023-03-06T08:18:55.571Z,23.30
2023-03-06T08:21:26.419Z,23.60
2023-03-06T08:23:54.165Z,21.83
2023-03-06T08:26:24.515Z,24.17
2023-03-06T08:28:53.112Z,20.95
2023-03-06T08:31:23.812Z,21.17
2023-03-06T08:33:51.335Z,19.35
2023-03-06T08:36:18.787Z,18.48
2023-03-06T08:38:46.237Z,19.77
2023-03-06T08:41:13.664Z,18.33
2023-03-06T08:43:41.212Z,22.08
2023-03-06T08:46:08.453Z,22.98
2023-03-06T08:48:35.915Z,22.88
2023-03-06T08:51:03.322Z,22.15
2023-03-06T08:53:42.527Z,23.65
2023-03-06T08:56:14.282Z,23.10
2023-03-06T08:58:41.580Z,22.30
2023-03-06T09:01:15.515Z,20.55
2023-03-06T09:03:43.645Z,21.17
2023-03-06T09:06:11.573Z,20.45
2023-03-06T09:08:43.136Z,21.13
2023-03-06T09:11:12.841Z,19.85
2023-03-06T09:13:40.986Z,22.80
2023-03-06T09:16:09.927Z,21.95
2023-03-06T09:18:37.764Z,22.55
2023-03-06T09:21:06.764Z,21.80
2023-03-06T09:23:34.297Z,21.67
2023-03-06T09:26:02.075Z,20.73
2023-03-06T09:28:29.558Z,22.27
2023-03-06T09:30:57.574Z,21.55
2023-03-06T09:33:25.686Z,21.80
2023-03-06T09:35:56.307Z,21.50
2023-03-06T09:38:27.094Z,19.75
2023-03-06T09:41:04.673Z,20.90
2023-03-06T09:43:38.335Z,20.95
2023-03-06T09:46:16.693Z,18.73
2023-03-06T09:48:58.538Z,20.95
2023-03-06T09:51:38.594Z,19.98
2023-03-06T09:54:13.767Z,21.67
2023-03-06T09:56:47.734Z,17.27
2023-03-06T10:02:00.213Z,18.77
2023-03-06T10:04:35.025Z,21.00
2023-03-06T10:07:08.545Z,20.55
2023-03-06T10:09:41.613Z,17.85
2023-03-06T10:12:12.033Z,19.63
2023-03-06T10:14:45.940Z,19.10
2023-03-06T10:17:20.818Z,18.02
2023-03-06T10:19:48.606Z,17.50
2023-03-06T10:22:33.333Z,18.42
2023-03-06T10:25:13.327Z,18.88
2023-03-06T10:27:51.355Z,19.23
2023-03-06T10:30:22.154Z,19.75
2023-03-06T10:32:55.644Z,18.48
2023-03-06T10:35:30.716Z,18.73
2023-03-06T10:38:10.160Z,16.90
2023-03-06T10:40:47.949Z,16.10
2023-03-06T10:43:15.559Z,17.48
2023-03-06T10:45:49.157Z,16.40
2023-03-06T10:48:21.758Z,16.40
2023-03-06T10:50:49.692Z,16.10
2023-03-06T10:53:26.591Z,16.73
2023-03-06T10:55:57.440Z,15.18
2023-03-06T10:58:26.547Z,15.45
2023-03-06T11:00:56.919Z,13.90
2023-03-06T11:03:25.108Z,15.88
2023-03-06T11:05:56.081Z,16.75
2023-03-06T11:08:24.066Z,13.30
2023-03-06T11:10:57.978Z,14.25
2023-03-06T11:13:32.175Z,14.95
2023-03-06T11:16:05.662Z,15.52
2023-03-06T11:18:39.337Z,14.68
2023-03-06T11:21:26.347Z,14.18
2023-03-06T11:23:55.380Z,13.57
2023-03-06T11:26:29.322Z,13.38
2023-03-06T11:29:08.966Z,14.10
2023-03-06T11:31:46.231Z,13.63
2023-03-06T11:34:23.636Z,13.27
2023-03-06T11:36:53.992Z,13.63
2023-03-06T11:39:31.788Z,13.65
2023-03-06T11:42:13.176Z,13.80
2023-03-06T11:44:52.049Z,13.90
2023-03-06T11:47:24.121Z,12.50
2023-03-06T11:50:06.008Z,12.20
2023-03-06T11:52:46.986Z,12.95
2023-03-06T11:55:20.892Z,12.07
2023-03-06T11:58:00.850Z,12.50
2023-03-06T12:00:40.536Z,11.32
2023-03-06T12:03:11.300Z,10.75
2023-03-06T12:05:42.106Z,10.30
2023-03-06T12:08:17.642Z,11.52
2023-03-06T12:10:52.305Z,10.43
2023-03-06T12:13:33.533Z,11.32
2023-03-06T12:16:23.162Z,11.30
2023-03-06T12:19:01.360Z,10.38
2023-03-06T12:21:36.104Z,11.30
2023-03-06T12:24:25.838Z,10.52
2023-03-06T12:27:02.813Z,10.15
2023-03-06T12:29:33.956Z,10.43
2023-03-06T12:32:15.073Z,9.50
2023-03-06T12:34:51.454Z,10.55
2023-03-06T12:37:25.824Z,10.32
2023-03-06T12:40:06.784Z,10.60
2023-03-06T12:42:40.894Z,11.57
2023-03-06T12:45:17.221Z,10.68
2023-03-06T12:47:47.633Z,10.75
2023-03-06T12:50:22.570Z,9.70
2023-03-06T12:52:54.328Z,8.80
2023-03-06T12:55:25.530Z,9.70
2023-03-06T12:57:54.017Z,9.43
2023-03-06T13:00:24.568Z,10.23
2023-03-06T13:03:06.659Z,10.70
2023-03-06T13:05:54.199Z,11.25
2023-03-06T13:08:24.522Z,10.52
2023-03-06T13:11:26.223Z,11.30
2023-03-06T13:13:53.653Z,11.07
2023-03-06T13:16:35.125Z,10.35
2023-03-06T13:19:12.243Z,10.18
2023-03-06T13:21:45.032Z,10.88
2023-03-06T13:24:15.949Z,10.32
2023-03-06T13:27:00.266Z,10.63
2023-03-06T13:29:30.739Z,11.05
2023-03-06T13:32:16.503Z,9.45
2023-03-06T13:34:47.365Z,9.40
2023-03-06T13:37:36.725Z,10.07
2023-03-06T13:40:26.376Z,9.32
2023-03-06T13:43:01.602Z,9.70
2023-03-06T13:45:34.811Z,10.02
2023-03-06T13:48:27.261Z,9.50
2023-03-06T13:50:51.475Z,9.18
2023-03-06T13:53:31.504Z,9.45
2023-03-06T13:56:02.074Z,10.25
2023-03-06T13:58:32.634Z,9.50
2023-03-06T14:01:16.390Z,9.85
2023-03-06T14:03:57.002Z,9.50
2023-03-06T14:06:42.471Z,10.23
2023-03-06T14:09:16.020Z,9.82
2023-03-06T14:11:50.783Z,9.52
2023-03-06T14:14:20.557Z,9.70
2023-03-06T14:16:51.125Z,10.23
2023-03-06T14:19:19.575Z,10.52
2023-03-06T14:21:51.611Z,9.48
2023-03-06T14:24:22.241Z,9.63
2023-03-06T14:26:51.981Z,8.70
2023-03-06T14:29:22.219Z,9.70
2023-03-06T14:31:52.562Z,8.63
2023-03-06T14:34:23.880Z,9.75
2023-03-06T14:36:53.985Z,9.52
2023-03-06T14:39:28.375Z,9.90
2023-03-06T14:41:58.785Z,9.95
2023-03-06T14:44:26.661Z,9.55
2023-03-06T14:46:56.754Z,9.65
2023-03-06T14:49:25.981Z,9.43
2023-03-06T14:51:56.809Z,9.85
2023-03-06T14:54:27.041Z,9.38
2023-03-06T14:57:01.553Z,9.45
2023-03-06T14:59:34.378Z,9.20
2023-03-06T15:02:05.517Z,10.00
2023-03-06T15:04:42.127Z,9.10
2023-03-06T15:07:14.755Z,9.52
2023-03-06T15:09:47.881Z,9.93
2023-03-06T15:12:18.234Z,9.65
2023-03-06T15:14:56.568Z,9.63
2023-03-06T15:17:29.541Z,9.35
2023-03-06T15:19:59.874Z,9.53
2023-03-06T15:22:38.070Z,9.23
2023-03-06T15:25:17.392Z,9.07
2023-03-06T15:27:48.042Z,9.93
2023-03-06T15:30:18.542Z,9.48
2023-03-06T15:32:45.893Z,9.90
2023-03-06T15:35:16.331Z,10.40
2023-03-06T15:37:43.762Z,9.90
2023-03-06T15:40:20.574Z,11.93
2023-03-06T15:42:50.130Z,9.60
2023-03-06T15:45:20.840Z,9.18
2023-03-06T15:47:50.779Z,10.25
2023-03-06T15:50:20.376Z,9.38
2023-03-06T15:52:48.653Z,10.35
2023-03-06T15:55:19.077Z,9.82
2023-03-06T15:57:51.802Z,9.80
2023-03-06T16:00:27.959Z,10.38
2023-03-06T16:02:57.679Z,9.65
2023-03-06T16:05:27.157Z,11.02
2023-03-06T16:07:55.056Z,9.18
2023-03-06T16:10:25.810Z,8.88
2023-03-06T16:12:59.708Z,10.52
2023-03-06T16:17:58.043Z,9.18
2023-03-06T16:20:27.653Z,9.45
2023-03-06T16:22:56.212Z,9.90
2023-03-06T16:25:26.367Z,9.70
2023-03-06T16:27:58.155Z,9.85
2023-03-06T16:30:29.157Z,9.95
2023-03-06T16:32:57.804Z,9.80
2023-03-06T16:35:25.690Z,10.45
2023-03-06T16:37:53.159Z,9.85
2023-03-06T16:40:25.789Z,10.35
2023-03-06T16:42:55.084Z,9.23
2023-03-06T16:45:24.077Z,9.82
2023-03-06T16:47:52.055Z,8.82
2023-03-06T16:50:24.441Z,8.93
2023-03-06T16:52:53.854Z,8.95
2023-03-06T16:55:22.383Z,9.57
2023-03-06T16:57:50.145Z,9.00
2023-03-06T17:00:18.801Z,9.63
2023-03-06T17:02:49.111Z,9.30
2023-03-06T17:05:16.934Z,9.15
2023-03-06T17:07:44.785Z,9.25
2023-03-06T17:10:16.115Z,8.77
2023-03-06T17:12:44.093Z,9.43
2023-03-06T17:15:12.167Z,9.88
2023-03-06T17:17:39.783Z,9.57
2023-03-06T17:20:12.146Z,9.52
2023-03-06T17:22:40.683Z,8.82
2023-03-06T17:25:09.337Z,7.88
2023-03-06T17:27:38.248Z,8.10
2023-03-06T17:30:06.643Z,8.43
2023-03-06T17:32:34.258Z,8.75
2023-03-06T17:35:01.694Z,9.00
2023-03-06T17:37:29.313Z,9.25
2023-03-06T17:39:56.634Z,9.02
2023-03-06T17:42:24.115Z,9.55
2023-03-06T17:44:53.058Z,9.52
2023-03-06T17:47:20.466Z,8.65
2023-03-06T17:49:47.794Z,8.52
2023-03-06T17:52:15.166Z,8.77
2023-03-06T17:54:42.492Z,9.25
2023-03-06T17:57:10.019Z,8.65
2023-03-06T17:59:37.478Z,8.07
2023-03-06T18:02:06.495Z,8.25
2023-03-06T18:04:34.157Z,8.60
2023-03-06T18:07:01.652Z,7.65
2023-03-06T18:09:29.465Z,8.48
2023-03-06T18:11:56.955Z,8.70
2023-03-06T18:14:24.590Z,9.13
2023-03-06T18:16:52.172Z,8.95
2023-03-06T18:19:19.661Z,8.50
2023-03-06T18:21:47.512Z,7.82
2023-03-06T18:24:14.937Z,8.35
2023-03-06T18:26:42.719Z,8.70
2023-03-06T18:29:10.195Z,9.63
2023-03-06T18:31:40.105Z,8.98
2023-03-06T18:34:11.230Z,8.30
2023-03-06T18:36:38.742Z,8.02
2023-03-06T18:39:08.885Z,8.00
2023-03-06T18:41:37.198Z,8.35
2023-03-06T18:44:05.024Z,9.63
2023-03-06T18:46:36.675Z,8.98
2023-03-06T18:49:05.001Z,9.90
2023-03-06T18:51:32.312Z,10.13
2023-03-06T18:54:02.101Z,8.85
2023-03-06T18:56:29.803Z,8.90
2023-03-06T18:59:01.402Z,9.70
2023-03-06T19:01:30.903Z,8.90
2023-03-06T19:04:01.304Z,8.65
2023-03-06T19:06:29.181Z,9.73
2023-03-06T19:08:58.997Z,9.25
2023-03-06T19:11:27.059Z,9.20
2023-03-06T19:13:54.909Z,9.48
2023-03-06T19:16:26.108Z,10.27
2023-03-06T19:18:55.786Z,9.15
2023-03-06T19:21:26.015Z,10.02
2023-03-06T19:23:53.719Z,9.63
2023-03-06T19:26:22.040Z,9.15
2023-03-06T19:28:49.899Z,8.18
2023-03-06T19:31:21.357Z,9.07
2023-03-06T19:33:50.132Z,9.70
2023-03-06T19:36:18.698Z,9.75
2023-03-06T19:38:50.717Z,10.18
2023-03-06T19:41:18.052Z,9.73
2023-03-06T19:43:49.192Z,10.18
2023-03-06T19:46:16.847Z,9.23
2023-03-06T19:48:44.786Z,10.15
2023-03-06T19:51:12.622Z,8.48
2023-03-06T19:53:40.539Z,9.45
2023-03-06T19:56:11.472Z,9.10
2023-03-06T19:58:40.652Z,9.93
2023-03-06T20:01:11.231Z,9.82
2023-03-06T20:03:39.425Z,8.95
2023-03-06T20:06:09.210Z,9.57
2023-03-06T20:08:37.128Z,9.35
2023-03-06T20:11:04.723Z,9.02
2023-03-06T20:13:32.262Z,9.00
2023-03-06T20:16:03.346Z,8.02
2023-03-06T20:18:30.856Z,9.70
2023-03-06T20:21:00.426Z,9.43
2023-03-06T20:23:28.591Z,8.57
2023-03-06T20:25:55.952Z,9.65
2023-03-06T20:28:23.880Z,10.02
2023-03-06T20:30:51.348Z,8.75
2023-03-06T20:33:21.092Z,9.32
2023-03-06T20:35:48.675Z,9.38
2023-03-06T20:38:16.161Z,9.43
2023-03-06T20:40:43.867Z,8.40
2023-03-06T20:43:11.335Z,8.68
2023-03-06T20:45:38.676Z,9.43
2023-03-06T20:48:06.432Z,8.63
2023-03-06T20:50:33.740Z,8.55
2023-03-06T20:53:01.148Z,10.63
2023-03-06T20:55:28.493Z,9.80
2023-03-06T20:57:55.897Z,9.95
2023-03-06T21:00:23.277Z,10.55
2023-03-06T21:02:50.734Z,10.38
2023-03-06T21:05:18.025Z,11.55
2023-03-06T21:07:45.473Z,11.32
2023-03-06T21:10:14.730Z,11.60
2023-03-06T21:12:42.462Z,11.05
2023-03-06T21:15:10.153Z,10.15
2023-03-06T21:17:37.574Z,12.30
2023-03-06T21:20:06.055Z,12.10
2023-03-06T21:22:33.626Z,11.00
2023-03-06T21:25:00.952Z,11.18
2023-03-06T21:27:28.306Z,12.25
2023-03-06T21:29:55.697Z,11.98
2023-03-06T21:32:23.242Z,11.27
2023-03-06T21:34:50.630Z,10.40
2023-03-06T21:37:18.011Z,9.63
2023-03-06T21:39:45.324Z,10.13
2023-03-06T21:42:12.778Z,10.73
2023-03-06T21:44:40.015Z,11.48
2023-03-06T21:47:07.423Z,9.57
2023-03-06T21:49:34.819Z,13.27
2023-03-06T21:52:02.199Z,10.85
2023-03-06T21:54:29.497Z,11.10
2023-03-06T21:56:57.829Z,11.88
2023-03-06T21:59:25.048Z,11.45
2023-03-06T22:01:52.371Z,11.40
2023-03-06T22:04:19.780Z,12.02
2023-03-06T22:06:47.218Z,11.73
2023-03-06T22:09:16.266Z,11.57
2023-03-06T22:11:43.828Z,10.05
2023-03-06T22:14:11.168Z,11.35
2023-03-06T22:16:38.668Z,10.40
2023-03-06T22:19:06.090Z,10.57
2023-03-06T22:21:33.895Z,11.82
2023-03-06T22:24:01.180Z,10.93
2023-03-06T22:26:29.934Z,12.75
2023-03-06T22:28:57.328Z,11.20
2023-03-06T22:31:26.956Z,12.05
2023-03-06T22:33:55.956Z,9.68
2023-03-06T22:36:24.193Z,11.27
2023-03-06T22:38:56.555Z,10.43
2023-03-06T22:41:26.815Z,11.20
2023-03-06T22:43:57.058Z,10.77
2023-03-06T22:46:25.143Z,11.93
2023-03-06T22:48:52.585Z,11.75
2023-03-06T22:51:21.219Z,10.85
2023-03-06T22:53:49.514Z,11.23
2023-03-06T22:56:19.501Z,10.30
2023-03-06T22:58:47.881Z,11.18
2023-03-06T23:01:19.432Z,12.15
2023-03-06T23:03:49.712Z,9.77
2023-03-06T23:06:21.499Z,10.38
2023-03-06T23:08:51.865Z,11.55
2023-03-06T23:11:20.897Z,11.23
2023-03-06T23:13:50.107Z,11.68
2023-03-06T23:16:19.022Z,11.98
2023-03-06T23:18:48.590Z,11.77
2023-03-06T23:21:20.027Z,10.82
2023-03-06T23:23:51.494Z,11.13
2023-03-06T23:26:21.413Z,12.00
2023-03-06T23:28:49.073Z,10.30
2023-03-06T23:31:20.831Z,9.80
2023-03-06T23:33:48.488Z,10.45
2023-03-06T23:36:18.648Z,11.70
2023-03-06T23:38:46.668Z,10.63
2023-03-06T23:41:16.833Z,11.02
2023-03-06T23:43:45.180Z,10.68
2023-03-06T23:46:13.596Z,10.77
2023-03-06T23:48:43.114Z,10.82
2023-03-06T23:51:15.971Z,10.57
2023-03-06T23:53:44.818Z,10.45
2023-03-06T23:56:13.184Z,10.32
2023-03-06T23:58:41.317Z,10.85
